createdAt,value
2023-04-02T00:01:18.342Z,2.90
2023-04-02T00:03:45.659Z,2.30
2023-04-02T00:06:32.677Z,3.00
2023-04-02T00:09:04.518Z,2.97
2023-04-02T00:11:37.268Z,2.60
2023-04-02T00:14:05.714Z,2.47
2023-04-02T00:16:33.437Z,2.40
2023-04-02T00:19:04.738Z,2.00
2023-04-02T00:21:34.522Z,2.57
2023-04-02T00:24:02.740Z,3.07
2023-04-02T00:26:30.617Z,3.47
2023-04-02T00:28:59.159Z,2.90
2023-04-02T00:31:27.419Z,3.03
2023-04-02T00:33:54.836Z,4.30
2023-04-02T00:36:22.938Z,3.90
2023-04-02T00:38:50.168Z,2.73
2023-04-02T00:41:21.415Z,2.60
2023-04-02T00:43:51.422Z,2.50
2023-04-02T00:46:22.201Z,2.40
2023-04-02T00:48:59.605Z,2.80
2023-04-02T00:51:30.683Z,2.63
2023-04-02T00:53:58.992Z,2.50
2023-04-02T00:56:31.757Z,2.53
2023-04-02T00:58:59.227Z,2.73
2023-04-02T01:01:36.786Z,2.93
2023-04-02T01:04:05.607Z,3.00
2023-04-02T01:06:34.240Z,2.70
2023-04-02T01:09:12.687Z,3.20
2023-04-02T01:11:39.894Z,3.03
2023-04-02T01:14:06.993Z,3.00
2023-04-02T01:16:46.437Z,3.53
2023-04-02T01:19:13.737Z,2.97
2023-04-02T01:21:53.206Z,2.50
2023-04-02T01:24:21.107Z,3.07
2023-04-02T01:26:57.845Z,2.93
2023-04-02T01:29:31.146Z,3.47
2023-04-02T01:32:01.314Z,3.27
2023-04-02T01:34:28.992Z,3.33
2023-04-02T01:37:14.844Z,3.27
2023-04-02T01:39:42.014Z,3.33
2023-04-02T01:42:14.727Z,3.30
2023-04-02T01:44:47.715Z,3.10
2023-04-02T01:47:16.195Z,3.10
2023-04-02T01:49:44.270Z,3.50
2023-04-02T01:52:18.074Z,3.03
2023-04-02T01:54:47.172Z,3.27
2023-04-02T01:57:14.291Z,3.30
2023-04-02T01:59:41.579Z,3.73
2023-04-02T02:02:12.343Z,3.47
2023-04-02T02:04:39.960Z,3.80
2023-04-02T02:07:10.295Z,3.87
2023-04-02T02:09:37.395Z,5.50
2023-04-02T02:12:05.237Z,4.90
2023-04-02T02:14:32.372Z,5.87
2023-04-02T02:17:04.141Z,6.07
2023-04-02T02:19:37.127Z,5.43
2023-04-02T02:22:10.144Z,5.33
2023-04-02T02:24:37.711Z,5.93
2023-04-02T02:27:07.771Z,5.40
2023-04-02T02:29:36.969Z,5.90
2023-04-02T02:32:05.733Z,5.50
2023-04-02T02:34:41.595Z,5.70
2023-04-02T02:37:25.351Z,5.50
2023-04-02T02:39:54.901Z,5.17
2023-04-02T02:42:31.257Z,5.43
2023-04-02T02:44:59.151Z,4.63
2023-04-02T02:47:28.893Z,5.00
2023-04-02T02:49:59.053Z,5.00
2023-04-02T02:52:27.647Z,5.13
2023-04-02T02:55:01.113Z,4.83
2023-04-02T02:57:31.002Z,4.97
2023-04-02T02:59:59.805Z,5.07
2023-04-02T03:02:27.772Z,5.57
2023-04-02T03:04:55.610Z,4.33
2023-04-02T03:07:25.609Z,4.23
2023-04-02T03:10:13.466Z,4.90
2023-04-02T03:12:43.850Z,4.67
2023-04-02T03:15:17.181Z,4.90
2023-04-02T03:17:49.341Z,4.93
2023-04-02T03:20:31.808Z,4.33
2023-04-02T03:23:16.727Z,4.53
2023-04-02T03:26:11.212Z,4.87
2023-04-02T03:28:41.179Z,4.80
2023-04-02T03:31:23.328Z,5.07
2023-04-02T03:33:53.618Z,5.27
2023-04-02T03:36:28.594Z,4.60
2023-04-02T03:39:06.773Z,4.83
2023-04-02T03:41:42.965Z,3.90
2023-04-02T03:44:24.647Z,4.13
2023-04-02T03:46:57.413Z,4.57
2023-04-02T03:49:28.688Z,4.20
2023-04-02T03:52:03.780Z,4.20
2023-04-02T03:54:31.700Z,4.00
2023-04-02T03:56:59.304Z,4.60
2023-04-02T03:59:26.374Z,3.73
2023-04-02T04:01:59.329Z,4.00
2023-04-02T04:04:28.550Z,4.03
2023-04-02T04:06:57.449Z,3.70
2023-04-02T04:09:30.535Z,3.77
2023-04-02T04:12:20.721Z,4.23
2023-04-02T04:14:54.320Z,3.77
2023-04-02T04:17:41.771Z,4.00
2023-04-02T04:20:28.403Z,4.27
2023-04-02T04:22:56.035Z,3.23
2023-04-02T04:25:29.511Z,3.73
2023-04-02T04:28:05.633Z,3.33
2023-04-02T04:30:43.668Z,3.53
2023-04-02T04:33:15.325Z,3.67
2023-04-02T04:35:48.169Z,3.90
2023-04-02T04:38:17.405Z,3.60
2023-04-02T04:40:54.380Z,3.93
2023-04-02T04:43:38.725Z,4.07
2023-04-02T04:46:08.867Z,3.27
2023-04-02T04:48:38.380Z,3.40
2023-04-02T04:51:18.864Z,3.47
2023-04-02T04:53:50.648Z,2.77
2023-04-02T04:56:20.077Z,3.13
2023-04-02T04:58:57.391Z,3.10
2023-04-02T05:01:43.218Z,2.80
2023-04-02T05:04:22.327Z,2.93
2023-04-02T05:07:08.291Z,3.00
2023-04-02T05:09:43.760Z,2.83
2023-04-02T05:12:10.883Z,3.33
2023-04-02T05:14:43.140Z,2.50
2023-04-02T05:17:19.699Z,3.33
2023-04-02T05:19:57.049Z,3.20
2023-04-02T05:22:35.962Z,3.17
2023-04-02T05:25:10.541Z,2.97
2023-04-02T05:27:44.859Z,2.60
2023-04-02T05:30:23.729Z,2.60
2023-04-02T05:32:56.361Z,2.83
2023-04-02T05:35:27.655Z,3.23
2023-04-02T05:37:54.789Z,2.80
2023-04-02T05:40:24.831Z,2.50
2023-04-02T05:42:55.817Z,3.97
2023-04-02T05:45:31.659Z,2.77
2023-04-02T05:48:02.058Z,3.30
2023-04-02T05:50:41.297Z,2.60
2023-04-02T05:53:14.964Z,3.23
2023-04-02T05:56:00.465Z,2.30
2023-04-02T05:58:36.554Z,3.00
2023-04-02T06:01:13.537Z,2.57
2023-04-02T06:03:50.973Z,2.87
2023-04-02T06:06:44.985Z,2.80
2023-04-02T06:09:18.227Z,3.10
2023-04-02T06:11:47.837Z,2.70
2023-04-02T06:14:15.485Z,2.93
2023-04-02T06:16:43.696Z,2.50
2023-04-02T06:19:22.456Z,2.70
2023-04-02T06:21:51.667Z,2.37
2023-04-02T06:24:20.603Z,3.03
2023-04-02T06:26:54.375Z,2.43
2023-04-02T06:29:28.219Z,2.30
2023-04-02T06:31:57.834Z,2.33
2023-04-02T06:34:25.957Z,2.43
2023-04-02T06:36:56.625Z,2.23
2023-04-02T06:39:24.532Z,2.30
2023-04-02T06:42:01.977Z,2.13
2023-04-02T06:44:32.718Z,2.20
2023-04-02T06:47:03.931Z,2.40
2023-04-02T06:49:41.064Z,2.57
2023-04-02T06:52:14.649Z,2.53
2023-04-02T06:54:41.762Z,2.10
2023-04-02T06:57:10.471Z,2.33
2023-04-02T06:59:37.843Z,2.20
2023-04-02T07:02:06.601Z,1.90
2023-04-02T07:04:34.003Z,2.43
2023-04-02T07:07:01.300Z,2.17
2023-04-02T07:09:28.517Z,2.43
2023-04-02T07:11:55.634Z,3.67
2023-04-02T07:14:22.750Z,2.57
2023-04-02T07:16:49.842Z,2.13
2023-04-02T07:19:19.292Z,2.07
2023-04-02T07:21:46.402Z,2.47
2023-04-02T07:24:13.594Z,2.80
2023-04-02T07:26:41.016Z,1.90
2023-04-02T07:29:08.787Z,2.53
2023-04-02T07:31:36.185Z,2.63
2023-04-02T07:34:03.338Z,1.97
2023-04-02T07:36:30.737Z,2.07
2023-04-02T07:38:57.889Z,1.83
2023-04-02T07:41:26.176Z,2.40
2023-04-02T07:43:53.264Z,2.00
2023-04-02T07:46:20.411Z,2.27
2023-04-02T07:48:47.845Z,1.73
2023-04-02T07:51:18.452Z,2.20
2023-04-02T07:53:50.322Z,2.00
2023-04-02T07:56:20.149Z,2.10
2023-04-02T07:58:47.692Z,2.80
2023-04-02T08:01:19.367Z,2.00
2023-04-02T08:03:46.991Z,2.10
2023-04-02T08:06:14.332Z,2.23
2023-04-02T08:08:41.522Z,2.37
2023-04-02T08:11:09.240Z,2.43
2023-04-02T08:13:37.130Z,2.27
2023-04-02T08:16:04.430Z,2.30
2023-04-02T08:18:31.777Z,2.37
2023-04-02T08:20:59.244Z,2.17
2023-04-02T08:23:29.337Z,1.90
2023-04-02T08:25:56.560Z,1.83
2023-04-02T08:28:23.571Z,1.70
2023-04-02T08:30:51.290Z,2.03
2023-04-02T08:33:18.894Z,1.90
2023-04-02T08:35:49.493Z,1.40
2023-04-02T08:38:17.712Z,1.53
2023-04-02T08:40:45.927Z,1.83
2023-04-02T08:43:31.684Z,1.60
2023-04-02T08:46:17.627Z,1.40
2023-04-02T08:48:46.346Z,1.53
2023-04-02T08:51:24.337Z,1.83
2023-04-02T08:53:52.271Z,1.97
2023-04-02T08:56:29.740Z,1.50
2023-04-02T08:58:58.319Z,1.80
2023-04-02T09:01:35.761Z,1.90
2023-04-02T09:04:03.619Z,1.70
2023-04-02T09:06:33.381Z,1.80
2023-04-02T09:09:00.623Z,2.03
2023-04-02T09:11:36.505Z,2.07
2023-04-02T09:14:09.802Z,1.67
2023-04-02T09:16:52.315Z,1.70
2023-04-02T09:19:24.006Z,1.70
2023-04-02T09:22:06.798Z,1.60
2023-04-02T09:24:34.684Z,1.70
2023-04-02T09:27:01.890Z,1.70
2023-04-02T09:29:45.180Z,1.93
2023-04-02T09:32:20.283Z,1.93
2023-04-02T09:34:47.308Z,2.07
2023-04-02T09:37:25.450Z,2.80
2023-04-02T09:39:52.512Z,1.80
2023-04-02T09:42:31.886Z,1.97
2023-04-02T09:45:14.274Z,2.03
2023-04-02T09:47:42.360Z,1.90
2023-04-02T09:50:21.990Z,1.80
2023-04-02T09:52:49.409Z,1.73
2023-04-02T09:55:16.421Z,1.60
2023-04-02T09:57:43.931Z,1.77
2023-04-02T10:00:25.965Z,2.20
2023-04-02T10:03:02.142Z,1.83
2023-04-02T10:05:39.854Z,2.20
2023-04-02T10:08:17.329Z,2.20
2023-04-02T10:10:46.995Z,1.80
2023-04-02T10:13:28.328Z,1.90
2023-04-02T10:16:06.335Z,1.97
2023-04-02T10:18:39.964Z,1.77
2023-04-02T10:21:08.685Z,1.70
2023-04-02T10:23:35.794Z,1.50
2023-04-02T10:26:21.716Z,2.47
2023-04-02T10:28:56.128Z,2.17
2023-04-02T10:31:25.481Z,1.77
2023-04-02T10:34:02.573Z,1.87
2023-04-02T10:36:45.071Z,1.93
2023-04-02T10:39:50.800Z,1.63
2023-04-02T10:42:22.698Z,2.17
2023-04-02T10:44:53.691Z,2.27
2023-04-02T10:47:31.070Z,1.97
2023-04-02T10:50:04.384Z,1.90
2023-04-02T10:52:35.648Z,1.90
2023-04-02T10:55:08.699Z,2.00
2023-04-02T10:57:40.424Z,1.60
2023-04-02T11:00:10.795Z,1.90
2023-04-02T11:02:50.000Z,2.13
2023-04-02T11:05:43.810Z,1.87
2023-04-02T11:08:19.301Z,1.90
2023-04-02T11:10:48.724Z,2.03
2023-04-02T11:13:23.129Z,1.60
2023-04-02T11:15:50.235Z,2.33
2023-04-02T11:18:22.774Z,2.17
2023-04-02T11:20:58.341Z,2.10
2023-04-02T11:23:28.044Z,1.67
2023-04-02T11:26:15.024Z,1.77
2023-04-02T11:28:42.157Z,2.10
2023-04-02T11:31:20.386Z,2.10
2023-04-02T11:33:49.993Z,2.07
2023-04-02T11:36:36.024Z,1.80
2023-04-02T11:39:14.655Z,1.80
2023-04-02T11:42:01.672Z,2.17
2023-04-02T11:44:28.692Z,2.20
2023-04-02T11:47:14.517Z,2.53
2023-04-02T11:50:01.229Z,1.73
2023-04-02T11:52:33.449Z,2.00
2023-04-02T11:55:02.368Z,1.80
2023-04-02T11:57:41.052Z,2.30
2023-04-02T12:00:11.482Z,1.93
2023-04-02T12:02:56.663Z,1.83
2023-04-02T12:05:27.738Z,2.20
2023-04-02T12:07:55.809Z,2.23
2023-04-02T12:10:24.285Z,1.60
2023-04-02T12:12:51.780Z,2.63
2023-04-02T12:15:37.678Z,1.80
2023-04-02T12:18:16.779Z,1.73
2023-04-02T12:20:49.843Z,1.80
2023-04-02T12:23:19.490Z,1.90
2023-04-02T12:25:54.204Z,1.87
2023-04-02T12:28:22.368Z,2.07
2023-04-02T12:30:52.019Z,1.97
2023-04-02T12:33:33.696Z,1.60
2023-04-02T12:36:02.761Z,1.83
2023-04-02T12:38:32.343Z,1.57
2023-04-02T12:41:00.730Z,1.80
2023-04-02T12:43:35.251Z,2.53
2023-04-02T12:46:06.588Z,1.40
2023-04-02T12:48:35.097Z,1.70
2023-04-02T12:51:03.049Z,1.93
2023-04-02T12:53:35.800Z,1.70
2023-04-02T12:56:03.268Z,2.17
2023-04-02T12:58:41.061Z,2.20
2023-04-02T13:01:14.395Z,1.93
2023-04-02T13:03:42.619Z,1.60
2023-04-02T13:06:18.914Z,2.40
2023-04-02T13:08:46.074Z,1.67
2023-04-02T13:11:13.271Z,2.13
2023-04-02T13:13:41.228Z,1.77
2023-04-02T13:16:17.644Z,1.80
2023-04-02T13:18:46.553Z,1.80
2023-04-02T13:21:19.751Z,2.30
2023-04-02T13:23:46.895Z,1.90
2023-04-02T13:26:25.728Z,2.13
2023-04-02T13:29:03.540Z,1.87
2023-04-02T13:31:31.317Z,1.80
2023-04-02T13:33:58.981Z,1.60
2023-04-02T13:36:29.208Z,1.60
2023-04-02T13:38:56.554Z,1.60
2023-04-02T13:41:26.254Z,1.73
2023-04-02T13:43:56.866Z,1.30
2023-04-02T13:46:26.241Z,1.33
2023-04-02T13:48:54.414Z,2.00
2023-04-02T13:51:23.406Z,1.90
2023-04-02T13:53:54.762Z,1.50
2023-04-02T13:56:23.317Z,1.60
2023-04-02T13:58:51.182Z,1.80
2023-04-02T14:01:20.436Z,1.53
2023-04-02T14:03:47.523Z,1.53
2023-04-02T14:06:24.772Z,1.90
2023-04-02T14:09:21.196Z,1.70
2023-04-02T14:11:53.995Z,1.43
2023-04-02T14:14:26.564Z,1.80
2023-04-02T14:17:09.772Z,2.27
2023-04-02T14:19:36.827Z,1.40
2023-04-02T14:22:12.923Z,1.33
2023-04-02T14:24:52.312Z,1.70
2023-04-02T14:27:39.772Z,1.80
2023-04-02T14:30:16.932Z,1.60
2023-04-02T14:32:50.179Z,1.80
2023-04-02T14:35:17.228Z,1.50
2023-04-02T14:37:50.671Z,1.90
2023-04-02T14:40:28.021Z,1.70
2023-04-02T14:43:07.858Z,1.40
2023-04-02T14:45:38.060Z,1.90
2023-04-02T14:48:17.248Z,1.90
2023-04-02T14:50:44.306Z,1.47
2023-04-02T14:53:18.916Z,1.60
2023-04-02T14:55:48.221Z,1.43
2023-04-02T14:58:23.880Z,1.80
2023-04-02T15:01:09.565Z,1.50
2023-04-02T15:03:43.802Z,1.33
2023-04-02T15:06:12.354Z,1.60
2023-04-02T15:09:06.171Z,1.50
2023-04-02T15:11:40.190Z,1.50
2023-04-02T15:14:25.136Z,1.40
2023-04-02T15:16:57.678Z,1.50
2023-04-02T15:19:24.794Z,1.70
2023-04-02T15:22:09.691Z,1.23
2023-04-02T15:24:36.942Z,1.53
2023-04-02T15:27:05.476Z,2.00
2023-04-02T15:29:55.331Z,1.60
2023-04-02T15:32:37.718Z,1.20
2023-04-02T15:35:23.528Z,1.60
2023-04-02T15:37:55.928Z,1.50
2023-04-02T15:40:41.552Z,1.60
2023-04-02T15:43:28.173Z,1.80
2023-04-02T15:46:14.258Z,1.10
2023-04-02T15:48:59.685Z,1.60
2023-04-02T15:51:33.632Z,1.33
2023-04-02T15:56:47.348Z,1.40
2023-04-02T15:59:14.676Z,1.53
2023-04-02T16:01:44.505Z,1.73
2023-04-02T16:04:11.608Z,1.30
2023-04-02T16:06:57.465Z,1.60
2023-04-02T16:09:43.889Z,1.67
2023-04-02T16:12:19.063Z,1.50
2023-04-02T16:14:47.610Z,1.43
2023-04-02T16:17:25.400Z,1.40
2023-04-02T16:20:11.075Z,1.50
2023-04-02T16:25:22.231Z,1.73
2023-04-02T16:28:09.058Z,1.60
2023-04-02T16:30:46.559Z,2.00
2023-04-02T16:33:33.599Z,1.40
2023-04-02T16:36:00.906Z,1.70
2023-04-02T16:38:44.900Z,1.30
2023-04-02T16:41:14.825Z,1.70
2023-04-02T16:43:51.237Z,1.70
2023-04-02T16:46:40.572Z,1.90
2023-04-02T16:49:26.513Z,2.17
2023-04-02T16:52:12.271Z,1.47
2023-04-02T16:55:04.129Z,1.43
2023-04-02T16:57:42.029Z,1.60
2023-04-02T17:00:27.729Z,1.80
2023-04-02T17:03:10.601Z,1.70
2023-04-02T17:05:49.363Z,1.30
2023-04-02T17:08:22.051Z,1.40
2023-04-02T17:10:55.647Z,1.40
2023-04-02T17:13:27.570Z,1.53
2023-04-02T17:16:00.358Z,1.60
2023-04-02T17:18:27.689Z,1.73
2023-04-02T17:20:55.266Z,1.30
2023-04-02T17:23:25.025Z,1.53
2023-04-02T17:25:54.849Z,1.73
2023-04-02T17:28:25.562Z,2.23
2023-04-02T17:30:55.310Z,1.60
2023-04-02T17:33:26.596Z,1.47
2023-04-02T17:35:56.853Z,1.20
2023-04-02T17:38:34.393Z,1.40
2023-04-02T17:41:08.569Z,1.40
2023-04-02T17:43:47.996Z,1.73
2023-04-02T17:46:27.599Z,1.70
2023-04-02T17:49:16.210Z,1.87
2023-04-02T17:51:51.421Z,1.83
2023-04-02T17:54:37.029Z,1.13
2023-04-02T17:57:06.877Z,1.33
2023-04-02T17:59:40.091Z,1.37
2023-04-02T18:02:25.958Z,2.10
2023-04-02T18:05:11.625Z,1.43
2023-04-02T18:07:48.383Z,1.83
2023-04-02T18:10:30.463Z,1.40
2023-04-02T18:13:14.438Z,2.07
2023-04-02T18:15:58.990Z,1.57
2023-04-02T18:18:48.691Z,1.63
2023-04-02T18:21:18.490Z,1.70
2023-04-02T18:23:45.554Z,1.90
2023-04-02T18:26:24.205Z,1.77
2023-04-02T18:29:00.216Z,1.50
2023-04-02T18:31:32.262Z,1.70
2023-04-02T18:34:18.464Z,1.70
2023-04-02T18:37:06.679Z,1.93
2023-04-02T18:39:34.030Z,2.10
2023-04-02T18:42:04.497Z,2.10
2023-04-02T18:44:49.069Z,1.77
2023-04-02T18:47:25.356Z,1.60
2023-04-02T18:50:12.668Z,2.00
2023-04-02T18:52:40.610Z,2.20
2023-04-02T18:55:20.775Z,2.00
2023-04-02T18:57:50.303Z,1.70
2023-04-02T19:00:24.616Z,1.90
2023-04-02T19:02:54.034Z,1.77
2023-04-02T19:05:26.800Z,1.73
2023-04-02T19:08:04.077Z,1.77
2023-04-02T19:10:56.488Z,1.80
2023-04-02T19:13:29.881Z,1.83
2023-04-02T19:15:59.753Z,1.90
2023-04-02T19:18:32.657Z,1.57
2023-04-02T19:21:04.057Z,1.43
2023-04-02T19:23:36.053Z,1.70
2023-04-02T19:26:06.941Z,1.60
2023-04-02T19:28:39.933Z,1.87
2023-04-02T19:31:33.141Z,1.77
2023-04-02T19:34:16.061Z,1.33
2023-04-02T19:36:47.161Z,1.50
2023-04-02T19:39:31.871Z,1.30
2023-04-02T19:42:06.194Z,1.50
2023-04-02T19:44:42.317Z,1.73
2023-04-02T19:47:10.149Z,2.30
2023-04-02T19:49:37.457Z,1.60
2023-04-02T19:52:04.662Z,1.33
2023-04-02T19:54:35.782Z,1.50
2023-04-02T19:57:05.270Z,1.30
2023-04-02T19:59:32.599Z,1.40
2023-04-02T20:02:02.041Z,1.80
2023-04-02T20:04:29.211Z,1.30
2023-04-02T20:06:56.286Z,1.60
2023-04-02T20:09:23.506Z,2.07
2023-04-02T20:11:50.806Z,1.73
2023-04-02T20:14:17.860Z,1.40
2023-04-02T20:16:45.867Z,1.50
2023-04-02T20:19:13.130Z,1.90
2023-04-02T20:21:40.565Z,1.90
2023-04-02T20:24:07.861Z,1.80
2023-04-02T20:26:35.829Z,1.27
2023-04-02T20:29:02.908Z,1.37
2023-04-02T20:31:30.221Z,1.83
2023-04-02T20:33:57.904Z,1.70
2023-04-02T20:36:25.300Z,1.53
2023-04-02T20:38:52.816Z,2.00
2023-04-02T20:41:21.795Z,1.67
2023-04-02T20:43:49.779Z,1.87
2023-04-02T20:46:17.053Z,1.83
2023-04-02T20:48:45.129Z,1.80
2023-04-02T20:51:14.127Z,1.70
2023-04-02T20:53:41.313Z,1.83
2023-04-02T20:56:10.061Z,1.60
2023-04-02T20:58:37.508Z,1.60
2023-04-02T21:01:16.467Z,1.87
2023-04-02T21:03:43.706Z,1.97
2023-04-02T21:06:18.364Z,2.27
2023-04-02T21:08:45.881Z,1.60
2023-04-02T21:11:13.146Z,1.33
2023-04-02T21:13:42.383Z,1.77
2023-04-02T21:16:17.312Z,1.03
2023-04-02T21:18:44.443Z,1.50
2023-04-02T21:21:15.431Z,1.70
2023-04-02T21:23:43.784Z,1.97
2023-04-02T21:26:15.307Z,2.83
2023-04-02T21:28:43.130Z,1.67
2023-04-02T21:31:11.353Z,1.43
2023-04-02T21:33:39.772Z,1.33
2023-04-02T21:36:11.348Z,1.73
2023-04-02T21:38:42.304Z,1.73
2023-04-02T21:41:13.481Z,1.60
2023-04-02T21:43:40.609Z,1.60
2023-04-02T21:46:07.773Z,1.67
2023-04-02T21:48:34.821Z,1.80
2023-04-02T21:51:22.077Z,1.83
2023-04-02T21:53:49.425Z,1.70
2023-04-02T21:56:21.020Z,1.67
2023-04-02T21:58:48.242Z,1.90
2023-04-02T22:01:26.602Z,1.70
2023-04-02T22:03:55.613Z,1.90
2023-04-02T22:06:23.565Z,1.37
2023-04-02T22:09:01.579Z,2.00
2023-04-02T22:11:31.125Z,1.73
2023-04-02T22:13:58.667Z,1.70
2023-04-02T22:16:28.096Z,1.37
2023-04-02T22:18:58.424Z,1.70
2023-04-02T22:21:26.481Z,1.63
2023-04-02T22:23:53.608Z,1.83
2023-04-02T22:26:22.818Z,1.83
2023-04-02T22:28:50.014Z,1.50
2023-04-02T22:31:18.325Z,1.90
2023-04-02T22:33:46.293Z,1.43
2023-04-02T22:36:14.302Z,1.50
2023-04-02T22:38:41.410Z,1.40
2023-04-02T22:41:08.500Z,1.60
2023-04-02T22:43:36.552Z,1.87
2023-04-02T22:46:04.814Z,1.70
2023-04-02T22:48:31.878Z,1.43
2023-04-02T22:50:59.008Z,1.50
2023-04-02T22:53:26.349Z,1.50
2023-04-02T22:55:53.401Z,1.50
2023-04-02T22:58:21.121Z,1.63
2023-04-02T23:00:48.707Z,1.83
2023-04-02T23:03:16.198Z,1.57
2023-04-02T23:05:43.388Z,1.57
2023-04-02T23:08:10.472Z,1.83
2023-04-02T23:10:37.784Z,2.70
2023-04-02T23:13:05.005Z,1.63
2023-04-02T23:15:32.033Z,1.80
2023-04-02T23:17:59.156Z,1.60
2023-04-02T23:20:26.200Z,1.50
2023-04-02T23:22:53.250Z,1.93
2023-04-02T23:25:20.324Z,1.63
2023-04-02T23:27:47.408Z,1.77
2023-04-02T23:30:14.544Z,1.40
2023-04-02T23:32:41.623Z,1.80
2023-04-02T23:35:08.855Z,1.50
2023-04-02T23:37:36.032Z,1.43
2023-04-02T23:40:03.720Z,1.70
2023-04-02T23:42:30.897Z,1.70
2023-04-02T23:44:57.925Z,1.30
2023-04-02T23:47:25.043Z,1.27
2023-04-02T23:49:52.089Z,2.30
2023-04-02T23:52:19.205Z,2.20
2023-04-02T23:54:46.268Z,1.63
2023-04-02T23:57:13.469Z,1.63
2023-04-02T23:59:40.534Z,1.47
